createdAt,value
2023-02-18T00:00:55.611Z,99646.24
2023-02-18T00:01:57.519Z,99648.00
2023-02-18T00:02:59.582Z,99652.30
2023-02-18T00:04:02.131Z,99648.00
2023-02-18T00:05:04.836Z,99642.73
2023-02-18T00:06:16.753Z,99638.40
2023-02-18T00:07:18.806Z,99632.34
2023-02-18T00:08:21.660Z,99628.05
2023-02-18T00:09:23.646Z,99620.98
2023-02-18T00:10:25.925Z,99625.34
2023-02-18T00:11:30.735Z,99613.98
2023-02-18T00:12:33.354Z,99615.80
2023-02-18T00:13:36.635Z,99614.92
2023-02-18T00:14:38.817Z,99609.64
2023-02-18T00:15:40.836Z,99608.80
2023-02-18T00:16:44.234Z,99596.66
2023-02-18T00:17:46.284Z,99593.27
2023-02-18T00:18:48.581Z,99595.70
2023-02-18T00:19:51.562Z,99589.72
2023-02-18T00:20:53.678Z,99588.81
2023-02-18T00:21:55.813Z,99588.81
2023-02-18T00:22:57.708Z,99586.09
2023-02-18T00:24:00.255Z,99580.95
2023-02-18T00:25:02.350Z,99579.13
2023-02-18T00:26:11.052Z,99574.73
2023-02-18T00:27:13.264Z,99567.83
2023-02-18T00:28:16.567Z,99567.76
2023-02-18T00:29:19.923Z,99566.03
2023-02-18T00:30:22.685Z,99563.32
2023-02-18T00:31:27.242Z,99553.89
2023-02-18T00:32:29.833Z,99562.55
2023-02-18T00:33:31.775Z,99554.77
2023-02-18T00:34:33.971Z,99549.41
2023-02-18T00:35:35.866Z,99543.36
2023-02-18T00:36:38.716Z,99539.91
2023-02-18T00:37:40.612Z,99527.77
2023-02-18T00:38:49.755Z,99529.48
2023-02-18T00:39:52.939Z,99518.16
2023-02-18T00:40:55.174Z,99518.99
2023-02-18T00:41:57.827Z,99518.92
2023-02-18T00:42:59.697Z,99511.98
2023-02-18T00:44:02.101Z,99510.23
2023-02-18T00:45:05.280Z,99511.18
2023-02-18T00:46:08.181Z,99506.85
2023-02-18T00:47:10.478Z,99504.13
2023-02-18T00:48:12.347Z,99495.51
2023-02-18T00:49:15.554Z,99497.16
2023-02-18T00:50:18.008Z,99493.67
2023-02-18T00:51:20.912Z,99484.13
2023-02-18T00:52:22.793Z,99480.72
2023-02-18T00:53:24.948Z,99473.67
2023-02-18T00:54:26.930Z,99474.59
2023-02-18T00:55:28.827Z,99468.50
2023-02-18T00:56:32.935Z,99471.14
2023-02-18T00:57:34.833Z,99464.20
2023-02-18T00:58:37.678Z,99463.14
2023-02-18T00:59:39.784Z,99456.27
2023-02-18T01:00:42.448Z,99455.32
2023-02-18T01:01:44.542Z,99444.09
2023-02-18T01:02:47.826Z,99442.38
2023-02-18T01:03:50.322Z,99438.07
2023-02-18T01:04:52.261Z,99436.27
2023-02-18T01:05:54.472Z,99428.45
2023-02-18T01:06:56.547Z,99423.16
2023-02-18T01:07:58.621Z,99426.66
2023-02-18T01:09:00.490Z,99429.26
2023-02-18T01:10:03.661Z,99419.69
2023-02-18T01:11:07.509Z,99417.03
2023-02-18T01:12:10.511Z,99414.39
2023-02-18T01:13:14.189Z,99411.87
2023-02-18T01:14:16.408Z,99406.05
2023-02-18T01:15:19.516Z,99401.55
2023-02-18T01:16:21.842Z,99410.09
2023-02-18T01:17:23.965Z,99406.61
2023-02-18T01:18:27.281Z,99400.52
2023-02-18T01:19:29.202Z,99393.58
2023-02-18T01:20:31.451Z,99390.17
2023-02-18T01:21:33.409Z,99387.77
2023-02-18T01:22:35.996Z,99389.29
2023-02-18T01:23:39.808Z,99375.34
2023-02-18T01:24:42.361Z,99369.33
2023-02-18T01:25:45.097Z,99369.33
2023-02-18T01:26:48.098Z,99361.34
2023-02-18T01:27:50.176Z,99361.34
2023-02-18T01:28:52.055Z,99360.42
2023-02-18T01:29:54.423Z,99356.85
2023-02-18T01:30:56.850Z,99349.28
2023-02-18T01:31:58.909Z,99343.11
2023-02-18T01:33:01.169Z,99343.95
2023-02-18T01:34:03.341Z,99336.09
2023-02-18T01:35:07.263Z,99332.59
2023-02-18T01:36:11.667Z,99328.31
2023-02-18T01:37:14.327Z,99327.47
2023-02-18T01:38:16.347Z,99316.25
2023-02-18T01:39:18.353Z,99320.45
2023-02-18T01:40:24.194Z,99316.00
2023-02-18T01:41:28.342Z,99309.14
2023-02-18T01:42:30.310Z,99306.45
2023-02-18T01:43:34.211Z,99305.78
2023-02-18T01:44:36.340Z,99304.10
2023-02-18T01:46:07.066Z,99301.41
2023-02-18T01:47:09.297Z,99285.91
2023-02-18T01:48:31.747Z,99288.16
2023-02-18T01:49:36.800Z,99285.59
2023-02-18T01:50:43.456Z,99289.00
2023-02-18T01:51:51.952Z,99278.76
2023-02-18T01:52:54.181Z,99276.20
2023-02-18T01:54:02.778Z,99271.32
2023-02-18T01:55:05.493Z,99272.75
2023-02-18T01:56:11.685Z,99269.30
2023-02-18T01:57:17.388Z,99268.42
2023-02-18T01:58:20.366Z,99269.16
2023-02-18T01:59:29.495Z,99263.03
2023-02-18T02:00:33.401Z,99259.80
2023-02-18T02:01:36.993Z,99245.75
2023-02-18T02:02:43.841Z,99254.41
2023-02-18T02:03:46.925Z,99243.99
2023-02-18T02:04:50.241Z,99229.16
2023-02-18T02:05:52.251Z,99242.36
2023-02-18T02:06:54.655Z,99234.41
2023-02-18T02:07:56.983Z,99229.29
2023-02-18T02:09:02.780Z,99229.25
2023-02-18T02:10:07.959Z,99224.95
2023-02-18T02:13:00.101Z,99218.59
2023-02-18T02:14:11.948Z,99215.28
2023-02-18T02:15:17.613Z,99215.23
2023-02-18T02:16:27.870Z,99209.50
2023-02-18T02:17:36.704Z,99211.00
2023-02-18T02:18:57.835Z,99200.93
2023-02-18T02:21:35.962Z,99196.24
2023-02-18T02:23:02.942Z,99199.34
2023-02-18T02:24:11.707Z,99195.86
2023-02-18T02:25:44.199Z,99181.64
2023-02-18T02:27:07.882Z,99180.97
2023-02-18T02:28:16.799Z,99180.97
2023-02-18T02:29:39.649Z,99178.41
2023-02-18T02:30:48.670Z,99185.13
2023-02-18T02:32:14.337Z,99179.92
2023-02-18T02:33:36.648Z,99166.89
2023-02-18T02:34:45.465Z,99171.12
2023-02-18T02:36:15.120Z,99159.29
2023-02-18T02:37:29.775Z,99154.64
2023-02-18T02:38:41.225Z,99156.64
2023-02-18T02:39:56.082Z,99151.21
2023-02-18T02:41:23.326Z,99148.87
2023-02-18T02:42:55.052Z,99135.16
2023-02-18T02:44:13.125Z,99138.32
2023-02-18T02:45:28.093Z,99119.38
2023-02-18T02:46:37.694Z,99127.20
2023-02-18T02:47:49.113Z,99117.48
2023-02-18T02:49:00.776Z,99120.16
2023-02-18T02:50:09.439Z,99111.33
2023-02-18T02:51:48.187Z,99107.88
2023-02-18T02:52:53.877Z,99107.05
2023-02-18T02:54:11.990Z,99108.77
2023-02-18T02:55:14.025Z,99101.97
2023-02-18T02:56:20.023Z,99109.42
2023-02-18T02:57:25.905Z,99102.86
2023-02-18T02:58:29.319Z,99101.97
2023-02-18T02:59:34.151Z,99104.67
2023-02-18T03:00:40.251Z,99102.67
2023-02-18T03:02:02.898Z,99098.45
2023-02-18T03:04:59.585Z,99094.34
2023-02-18T03:06:22.166Z,99091.65
2023-02-18T03:08:03.117Z,99088.02
2023-02-18T03:09:11.738Z,99094.66
2023-02-18T03:10:26.676Z,99088.53
2023-02-18T03:11:32.122Z,99084.19
2023-02-18T03:12:40.608Z,99074.41
2023-02-18T03:13:55.288Z,99074.41
2023-02-18T03:15:22.317Z,99076.19
2023-02-18T03:16:43.554Z,99075.45
2023-02-18T03:17:52.341Z,99067.44
2023-02-18T03:19:30.124Z,99070.73
2023-02-18T03:20:39.195Z,99070.63
2023-02-18T03:21:44.967Z,99053.12
2023-02-18T03:22:49.685Z,99063.45
2023-02-18T03:24:29.089Z,99062.77
2023-02-18T03:25:34.591Z,99054.78
2023-02-18T03:26:40.639Z,99054.94
2023-02-18T03:27:52.633Z,99047.13
2023-02-18T03:28:58.092Z,99041.06
2023-02-18T03:30:32.836Z,99032.51
2023-02-18T03:31:37.798Z,99040.86
2023-02-18T03:32:40.352Z,99038.61
2023-02-18T03:33:46.126Z,99036.59
2023-02-18T03:34:51.887Z,99036.44
2023-02-18T03:35:55.839Z,99033.14
2023-02-18T03:37:00.604Z,99037.44
2023-02-18T03:38:12.395Z,99028.72
2023-02-18T03:40:29.433Z,99016.11
2023-02-18T03:41:32.399Z,99014.08
2023-02-18T03:42:34.593Z,99019.13
2023-02-18T03:43:36.572Z,99007.92
2023-02-18T03:44:38.583Z,99008.61
2023-02-18T03:45:40.579Z,99015.42
2023-02-18T03:46:44.749Z,99008.61
2023-02-18T03:47:47.236Z,99002.55
2023-02-18T03:48:49.206Z,99006.00
2023-02-18T03:49:51.087Z,99002.50
2023-02-18T03:50:53.364Z,99003.39
2023-02-18T03:51:55.378Z,98991.17
2023-02-18T03:52:57.246Z,98995.30
2023-02-18T03:53:59.560Z,98998.94
2023-02-18T03:55:04.001Z,98988.32
2023-02-18T03:56:07.580Z,98980.50
2023-02-18T03:57:10.897Z,98969.23
2023-02-18T03:58:13.028Z,98970.18
2023-02-18T03:59:15.005Z,98970.89
2023-02-18T04:00:18.482Z,98958.17
2023-02-18T04:01:20.840Z,98950.88
2023-02-18T04:02:22.859Z,98957.64
2023-02-18T04:03:24.976Z,98957.86
2023-02-18T04:04:27.846Z,98956.92
2023-02-18T04:05:30.045Z,98938.67
2023-02-18T04:06:32.610Z,98937.95
2023-02-18T04:07:35.162Z,98937.89
2023-02-18T04:08:37.045Z,98934.66
2023-02-18T04:09:39.331Z,98939.82
2023-02-18T04:10:41.418Z,98932.63
2023-02-18T04:11:43.294Z,98929.01
2023-02-18T04:12:45.961Z,98933.35
2023-02-18T04:13:49.557Z,98927.02
2023-02-18T04:14:51.461Z,98933.57
2023-02-18T04:15:54.287Z,98925.59
2023-02-18T04:16:56.759Z,98913.53
2023-02-18T04:17:58.704Z,98923.73
2023-02-18T04:19:00.609Z,98921.13
2023-02-18T04:20:03.529Z,98923.59
2023-02-18T04:21:05.553Z,98920.20
2023-02-18T04:22:07.615Z,98912.27
2023-02-18T04:23:09.506Z,98920.15
2023-02-18T04:24:12.309Z,98913.31
2023-02-18T04:25:14.462Z,98915.09
2023-02-18T04:26:17.599Z,98915.09
2023-02-18T04:27:19.487Z,98905.34
2023-02-18T04:28:21.885Z,98895.84
2023-02-18T04:29:23.879Z,98901.34
2023-02-18T04:30:26.293Z,98895.90
2023-02-18T04:31:30.242Z,98895.11
2023-02-18T04:32:32.383Z,98896.80
2023-02-18T04:33:34.450Z,98890.52
2023-02-18T04:34:36.428Z,98888.24
2023-02-18T04:35:40.480Z,98873.87
2023-02-18T04:36:43.094Z,98873.37
2023-02-18T04:37:45.254Z,98879.52
2023-02-18T04:38:47.165Z,98874.31
2023-02-18T04:39:49.040Z,98871.33
2023-02-18T04:40:51.357Z,98860.95
2023-02-18T04:41:53.245Z,98866.81
2023-02-18T04:42:55.633Z,98859.11
2023-02-18T04:43:57.508Z,98855.80
2023-02-18T04:44:59.387Z,98861.89
2023-02-18T04:46:03.737Z,98856.55
2023-02-18T04:47:07.644Z,98854.06
2023-02-18T04:48:09.557Z,98848.67
2023-02-18T04:49:11.429Z,98843.58
2023-02-18T04:50:14.213Z,98854.61
2023-02-18T04:51:16.523Z,98842.70
2023-02-18T04:52:18.910Z,98841.52
2023-02-18T04:53:20.812Z,98839.14
2023-02-18T04:54:23.151Z,98841.69
2023-02-18T04:55:25.068Z,98843.34
2023-02-18T04:56:27.191Z,98842.36
2023-02-18T04:57:30.714Z,98837.98
2023-02-18T04:58:32.643Z,98834.59
2023-02-18T04:59:34.957Z,98825.98
2023-02-18T05:00:36.973Z,98834.70
2023-02-18T05:01:39.435Z,98827.55
2023-02-18T05:02:41.999Z,98827.64
2023-02-18T05:03:44.206Z,98819.98
2023-02-18T05:04:46.500Z,98813.06
2023-02-18T05:05:48.740Z,98813.78
2023-02-18T05:06:50.857Z,98818.10
2023-02-18T05:07:52.806Z,98813.55
2023-02-18T05:08:55.484Z,98808.62
2023-02-18T05:09:57.384Z,98803.95
2023-02-18T05:10:59.426Z,98804.83
2023-02-18T05:12:01.298Z,98802.39
2023-02-18T05:13:03.597Z,98802.28
2023-02-18T05:14:06.472Z,98798.86
2023-02-18T05:15:08.913Z,98803.00
2023-02-18T05:16:12.144Z,98797.66
2023-02-18T05:17:14.371Z,98792.69
2023-02-18T05:18:16.368Z,98792.69
2023-02-18T05:19:18.280Z,98790.02
2023-02-18T05:20:20.972Z,98791.73
2023-02-18T05:21:22.853Z,98780.48
2023-02-18T05:22:26.413Z,98782.84
2023-02-18T05:23:28.450Z,98779.40
2023-02-18T05:24:32.023Z,98782.61
2023-02-18T05:25:34.016Z,98770.62
2023-02-18T05:26:36.463Z,98769.50
2023-02-18T05:27:38.894Z,98771.15
2023-02-18T05:28:41.728Z,98770.22
2023-02-18T05:29:44.289Z,98762.14
2023-02-18T05:30:46.423Z,98763.05
2023-02-18T05:31:48.984Z,98766.46
2023-02-18T05:32:51.008Z,98760.44
2023-02-18T05:33:52.999Z,98754.44
2023-02-18T05:34:54.876Z,98749.81
2023-02-18T05:35:57.753Z,98743.87
2023-02-18T05:37:00.539Z,98731.48
2023-02-18T05:38:02.682Z,98740.25
2023-02-18T05:39:04.682Z,98739.38
2023-02-18T05:40:08.439Z,98749.69
2023-02-18T05:41:10.379Z,98752.17
2023-02-18T05:42:12.482Z,98751.39
2023-02-18T05:43:15.306Z,98750.55
2023-02-18T05:44:17.369Z,98742.60
2023-02-18T05:45:20.097Z,98743.56
2023-02-18T05:46:23.781Z,98746.05
2023-02-18T05:47:25.908Z,98738.41
2023-02-18T05:48:27.909Z,98742.54
2023-02-18T05:49:32.555Z,98736.58
2023-02-18T05:50:34.572Z,98742.66
2023-02-18T05:51:36.475Z,98741.73
2023-02-18T05:52:38.818Z,98732.23
2023-02-18T05:53:40.961Z,98720.66
2023-02-18T05:54:43.728Z,98725.75
2023-02-18T05:55:45.806Z,98723.41
2023-02-18T05:56:48.292Z,98717.28
2023-02-18T05:57:51.210Z,98715.44
2023-02-18T05:58:53.669Z,98712.52
2023-02-18T05:59:55.551Z,98713.22
2023-02-18T06:00:57.875Z,98710.55
2023-02-18T06:01:59.887Z,98703.04
2023-02-18T06:03:01.982Z,98665.73
2023-02-18T06:04:04.369Z,98699.01
2023-02-18T06:05:07.508Z,98689.34
2023-02-18T06:06:11.454Z,98692.72
2023-02-18T06:07:14.597Z,98692.02
2023-02-18T06:08:16.880Z,98706.55
2023-02-18T06:09:18.802Z,98709.89
2023-02-18T06:10:21.213Z,98700.35
2023-02-18T06:11:23.906Z,98701.99
2023-02-18T06:12:25.820Z,98686.26
2023-02-18T06:13:27.694Z,98686.20
2023-02-18T06:14:29.612Z,98696.64
2023-02-18T06:15:31.483Z,98692.82
2023-02-18T06:16:33.992Z,98697.98
2023-02-18T06:17:36.075Z,98694.33
2023-02-18T06:18:37.969Z,98689.30
2023-02-18T06:19:40.369Z,98693.53
2023-02-18T06:20:42.347Z,98690.84
2023-02-18T06:21:44.378Z,98683.51
2023-02-18T06:22:46.254Z,98692.28
2023-02-18T06:23:48.137Z,98685.35
2023-02-18T06:24:51.011Z,98687.76
2023-02-18T06:25:53.004Z,98676.75
2023-02-18T06:26:56.628Z,98695.66
2023-02-18T06:27:58.528Z,98696.44
2023-02-18T06:29:00.878Z,98683.09
2023-02-18T06:30:04.262Z,98690.80
2023-02-18T06:31:06.799Z,98684.53
2023-02-18T06:32:09.876Z,98678.30
2023-02-18T06:33:12.979Z,98678.92
2023-02-18T06:34:15.542Z,98682.97
2023-02-18T06:35:17.720Z,98682.75
2023-02-18T06:36:20.520Z,98681.67
2023-02-18T06:37:22.597Z,98688.61
2023-02-18T06:38:25.174Z,98690.03
2023-02-18T06:39:27.093Z,98689.76
2023-02-18T06:40:30.613Z,98684.14
2023-02-18T06:41:33.252Z,98684.14
2023-02-18T06:42:35.159Z,98686.76
2023-02-18T06:43:37.502Z,98684.08
2023-02-18T06:44:39.538Z,98682.95
2023-02-18T06:45:41.573Z,98681.11
2023-02-18T06:46:44.680Z,98675.73
2023-02-18T06:47:47.259Z,98678.48
2023-02-18T06:48:49.404Z,98677.30
2023-02-18T06:49:51.306Z,98677.98
2023-02-18T06:50:53.586Z,98676.20
2023-02-18T06:51:55.537Z,98681.15
2023-02-18T06:52:57.503Z,98679.00
2023-02-18T06:53:59.499Z,98673.02
2023-02-18T06:55:01.380Z,98669.88
2023-02-18T06:56:04.443Z,98667.80
2023-02-18T06:57:06.322Z,98678.95
2023-02-18T06:58:10.294Z,98682.27
2023-02-18T06:59:12.239Z,98670.73
2023-02-18T07:00:15.739Z,98666.95
2023-02-18T07:01:17.942Z,98667.75
2023-02-18T07:02:20.203Z,98663.80
2023-02-18T07:03:22.165Z,98662.25
2023-02-18T07:04:25.042Z,98661.72
2023-02-18T07:05:27.343Z,98663.88
2023-02-18T07:06:29.551Z,98662.91
2023-02-18T07:07:31.838Z,98665.30
2023-02-18T07:08:33.856Z,98668.78
2023-02-18T07:09:35.866Z,98663.47
2023-02-18T07:10:38.244Z,98662.67
2023-02-18T07:11:40.235Z,98665.53
2023-02-18T07:12:42.377Z,98665.38
2023-02-18T07:13:44.254Z,98666.08
2023-02-18T07:14:46.270Z,98665.38
2023-02-18T07:15:48.280Z,98669.53
2023-02-18T07:16:50.730Z,98663.98
2023-02-18T07:17:53.080Z,98675.09
2023-02-18T07:18:55.117Z,98669.02
2023-02-18T07:19:57.000Z,98666.00
2023-02-18T07:20:59.077Z,98674.98
2023-02-18T07:22:00.958Z,98680.89
2023-02-18T07:23:02.836Z,98666.80
2023-02-18T07:24:05.933Z,98674.18
2023-02-18T07:25:08.181Z,98672.31
2023-02-18T07:26:12.631Z,98676.29
2023-02-18T07:27:14.633Z,98668.27
2023-02-18T07:28:16.509Z,98671.67
2023-02-18T07:29:18.410Z,98669.05
2023-02-18T07:30:21.534Z,98672.34
2023-02-18T07:31:23.633Z,98665.08
2023-02-18T07:32:25.527Z,98663.20
2023-02-18T07:33:27.964Z,98676.06
2023-02-18T07:34:29.875Z,98678.95
2023-02-18T07:35:31.774Z,98678.86
2023-02-18T07:36:33.866Z,98673.53
2023-02-18T07:37:35.942Z,98674.69
2023-02-18T07:38:37.824Z,98674.92
2023-02-18T07:39:43.931Z,98670.94
2023-02-18T07:40:46.177Z,98684.41
2023-02-18T07:41:48.203Z,98680.22
2023-02-18T07:42:50.234Z,98683.89
2023-02-18T07:43:52.969Z,98682.94
2023-02-18T07:44:55.025Z,98685.64
2023-02-18T07:45:57.108Z,98689.89
2023-02-18T07:46:59.570Z,98685.85
2023-02-18T07:48:01.491Z,98684.06
2023-02-18T07:49:04.657Z,98687.87
2023-02-18T07:50:09.193Z,98694.99
2023-02-18T07:51:12.362Z,98688.82
2023-02-18T07:52:15.430Z,98683.48
2023-02-18T07:53:17.438Z,98689.56
2023-02-18T07:54:20.166Z,98694.91
2023-02-18T07:55:22.285Z,98691.45
2023-02-18T07:56:24.410Z,98691.27
2023-02-18T07:57:27.052Z,98683.14
2023-02-18T07:58:32.047Z,98682.84
2023-02-18T07:59:34.228Z,98676.67
2023-02-18T08:00:37.126Z,98681.75
2023-02-18T08:01:39.829Z,98679.04
2023-02-18T08:02:41.832Z,98667.92
2023-02-18T08:03:44.511Z,98665.78
2023-02-18T08:04:48.121Z,98668.45
2023-02-18T08:05:51.612Z,98669.20
2023-02-18T08:06:54.044Z,98668.19
2023-02-18T08:07:56.307Z,98662.16
2023-02-18T08:08:58.783Z,98663.86
2023-02-18T08:10:03.105Z,98670.31
2023-02-18T08:11:18.008Z,98664.97
2023-02-18T08:12:09.447Z,98665.36
2023-02-18T08:13:12.399Z,98665.72
2023-02-18T08:14:14.476Z,98662.44
2023-02-18T08:15:16.657Z,98659.13
2023-02-18T08:16:21.167Z,98669.63
2023-02-18T08:17:23.160Z,98658.95
2023-02-18T08:18:26.614Z,98654.73
2023-02-18T08:19:28.671Z,98655.58
2023-02-18T08:20:31.039Z,98658.64
2023-02-18T08:21:35.204Z,98661.19
2023-02-18T08:22:37.106Z,98649.94
2023-02-18T08:23:40.061Z,98654.05
2023-02-18T08:24:41.967Z,98639.73
2023-02-18T08:25:50.263Z,98639.64
2023-02-18T08:27:00.266Z,98649.78
2023-02-18T08:27:56.660Z,98638.52
2023-02-18T08:28:58.862Z,98639.02
2023-02-18T08:30:00.794Z,98636.76
2023-02-18T08:31:04.447Z,98632.80
2023-02-18T08:32:06.754Z,98643.96
2023-02-18T08:33:08.787Z,98631.78
2023-02-18T08:34:10.649Z,98639.58
2023-02-18T08:35:15.064Z,98641.34
2023-02-18T08:36:18.398Z,98645.48
2023-02-18T08:37:21.376Z,98648.75
2023-02-18T08:38:24.244Z,98644.23
2023-02-18T08:39:26.172Z,98653.17
2023-02-18T08:40:29.711Z,98652.98
2023-02-18T08:41:31.741Z,98647.73
2023-02-18T08:42:33.883Z,98654.28
2023-02-18T08:43:36.407Z,98656.91
2023-02-18T08:44:39.121Z,98657.09
2023-02-18T08:45:42.745Z,98658.06
2023-02-18T08:46:44.867Z,98654.47
2023-02-18T08:48:18.658Z,98661.42
2023-02-18T08:48:50.899Z,98660.31
2023-02-18T08:49:53.665Z,98656.09
2023-02-18T08:50:56.272Z,98659.75
2023-02-18T08:51:58.312Z,98659.18
2023-02-18T08:53:00.491Z,98661.43
2023-02-18T08:54:02.606Z,98666.98
2023-02-18T08:55:06.016Z,98667.23
2023-02-18T08:56:09.857Z,98670.41
2023-02-18T08:57:11.878Z,98663.58
2023-02-18T08:58:13.979Z,98671.56
2023-02-18T08:59:15.858Z,98672.30
2023-02-18T09:00:19.045Z,98673.06
2023-02-18T09:01:21.305Z,98676.06
2023-02-18T09:02:23.289Z,98660.95
2023-02-18T09:03:26.012Z,98656.81
2023-02-18T09:04:27.940Z,98665.34
2023-02-18T09:05:30.282Z,98665.61
2023-02-18T09:06:38.132Z,98663.74
2023-02-18T09:07:40.246Z,98666.82
2023-02-18T09:08:42.247Z,98669.26
2023-02-18T09:09:44.374Z,98670.00
2023-02-18T09:10:46.429Z,98662.84
2023-02-18T09:11:48.756Z,98656.64
2023-02-18T09:12:50.914Z,98664.00
2023-02-18T09:13:52.795Z,98657.67
2023-02-18T09:14:54.900Z,98661.91
2023-02-18T09:16:02.557Z,98664.73
2023-02-18T09:17:04.752Z,98660.83
2023-02-18T09:18:06.699Z,98667.56
2023-02-18T09:19:09.844Z,98670.19
2023-02-18T09:20:12.523Z,98671.16
2023-02-18T09:21:16.334Z,98668.10
2023-02-18T09:22:19.013Z,98653.13
2023-02-18T09:23:21.104Z,98653.13
2023-02-18T09:24:24.547Z,98667.02
2023-02-18T09:25:27.102Z,98663.10
2023-02-18T09:26:30.091Z,98666.47
2023-02-18T09:27:34.337Z,98660.86
2023-02-18T09:28:36.679Z,98662.08
2023-02-18T09:29:40.557Z,98655.14
2023-02-18T09:30:42.773Z,98656.52
2023-02-18T09:31:45.403Z,98657.45
2023-02-18T09:32:47.472Z,98652.77
2023-02-18T09:34:01.007Z,98655.08
2023-02-18T09:35:04.525Z,98659.95
2023-02-18T09:36:07.845Z,98659.31
2023-02-18T09:37:10.477Z,98650.69
2023-02-18T09:38:15.571Z,98661.21
2023-02-18T09:39:17.846Z,98639.72
2023-02-18T09:40:29.798Z,98652.77
2023-02-18T09:41:38.581Z,98657.62
2023-02-18T09:42:40.797Z,98661.95
2023-02-18T09:43:46.501Z,98650.69
2023-02-18T09:44:52.438Z,98675.13
2023-02-18T09:45:55.875Z,98657.55
2023-02-18T09:47:04.439Z,98663.77
2023-02-18T09:48:08.349Z,98649.91
2023-02-18T09:49:20.109Z,98656.55
2023-02-18T09:50:31.701Z,98659.75
2023-02-18T09:51:33.522Z,98671.32
2023-02-18T09:52:37.263Z,98680.02
2023-02-18T09:53:41.775Z,98668.57
2023-02-18T09:54:44.761Z,98666.13
2023-02-18T09:55:49.196Z,98668.94
2023-02-18T09:56:53.978Z,98655.34
2023-02-18T09:58:02.674Z,98666.87
2023-02-18T09:59:08.335Z,98667.98
2023-02-18T10:00:14.705Z,98674.76
2023-02-18T10:01:29.378Z,98660.50
2023-02-18T10:02:33.313Z,98649.22
2023-02-18T10:03:35.976Z,98667.16
2023-02-18T10:04:42.811Z,98667.25
2023-02-18T10:06:03.659Z,98667.25
2023-02-18T10:07:08.159Z,98663.41
2023-02-18T10:08:25.607Z,98667.06
2023-02-18T10:09:41.952Z,98659.82
2023-02-18T10:10:45.840Z,98654.47
2023-02-18T10:12:00.205Z,98656.91
2023-02-18T10:13:03.575Z,98659.94
2023-02-18T10:14:12.003Z,98660.69
2023-02-18T10:15:23.674Z,98654.09
2023-02-18T10:16:28.205Z,98655.95
2023-02-18T10:17:32.664Z,98650.01
2023-02-18T10:18:47.418Z,98645.97
2023-02-18T10:19:51.639Z,98642.30
2023-02-18T10:20:57.398Z,98648.84
2023-02-18T10:22:03.027Z,98637.67
2023-02-18T10:23:06.013Z,98641.34
2023-02-18T10:24:14.527Z,98643.38
2023-02-18T10:25:19.938Z,98647.52
2023-02-18T10:26:25.006Z,98650.67
2023-02-18T10:27:30.912Z,98650.67
2023-02-18T10:28:35.444Z,98647.95
2023-02-18T10:29:37.490Z,98657.61
2023-02-18T10:30:43.611Z,98659.71
2023-02-18T10:33:33.897Z,98636.67
2023-02-18T10:34:48.170Z,98642.91
2023-02-18T10:36:06.017Z,98641.01
2023-02-18T10:38:59.860Z,98636.14
2023-02-18T10:40:22.426Z,98654.24
2023-02-18T10:41:49.379Z,98654.98
2023-02-18T10:43:10.134Z,98646.45
2023-02-18T10:44:37.121Z,98641.34
2023-02-18T10:45:42.807Z,98661.33
2023-02-18T10:46:57.620Z,98669.80
2023-02-18T10:48:18.178Z,98661.33
2023-02-18T10:49:42.320Z,98654.36
2023-02-18T10:50:45.516Z,98660.02
2023-02-18T10:51:54.214Z,98656.94
2023-02-18T10:53:01.679Z,98654.75
2023-02-18T10:54:04.120Z,98664.00
2023-02-18T10:55:09.274Z,98655.72
2023-02-18T10:56:21.789Z,98656.06
2023-02-18T10:57:24.616Z,98666.48
2023-02-18T10:58:46.930Z,98654.16
2023-02-18T11:00:01.335Z,98654.90
2023-02-18T11:01:16.300Z,98662.98
2023-02-18T11:02:18.877Z,98652.73
2023-02-18T11:03:23.488Z,98652.31
2023-02-18T11:04:40.520Z,98654.84
2023-02-18T11:05:44.360Z,98654.50
2023-02-18T11:06:50.319Z,98657.47
2023-02-18T11:07:55.816Z,98659.51
2023-02-18T11:08:59.965Z,98659.51
2023-02-18T11:10:18.445Z,98652.34
2023-02-18T11:11:24.295Z,98637.72
2023-02-18T11:12:47.519Z,98653.21
2023-02-18T11:13:55.023Z,98644.25
2023-02-18T11:15:18.872Z,98641.72
2023-02-18T11:16:23.389Z,98652.55
2023-02-18T11:17:32.096Z,98647.95
2023-02-18T11:18:39.625Z,98636.98
2023-02-18T11:19:42.080Z,98636.34
2023-02-18T11:20:48.093Z,98649.18
2023-02-18T11:21:50.112Z,98636.55
2023-02-18T11:22:54.161Z,98643.41
2023-02-18T11:23:58.639Z,98645.21
2023-02-18T11:25:03.074Z,98643.71
2023-02-18T11:26:08.491Z,98635.01
2023-02-18T11:28:42.826Z,98621.45
2023-02-18T11:29:44.973Z,98640.08
2023-02-18T11:30:50.827Z,98633.00
2023-02-18T11:31:56.071Z,98633.84
2023-02-18T11:33:01.868Z,98630.67
2023-02-18T11:34:04.862Z,98627.31
2023-02-18T11:35:09.091Z,98638.58
2023-02-18T11:36:24.640Z,98628.45
2023-02-18T11:37:26.804Z,98635.72
2023-02-18T11:38:38.264Z,98643.41
2023-02-18T11:39:47.184Z,98632.34
2023-02-18T11:40:58.822Z,98630.55
2023-02-18T11:42:04.548Z,98635.52
2023-02-18T11:43:12.648Z,98633.41
2023-02-18T11:44:21.488Z,98631.38
2023-02-18T11:45:29.441Z,98636.91
2023-02-18T11:46:32.724Z,98631.28
2023-02-18T11:47:37.108Z,98636.14
2023-02-18T11:48:39.630Z,98633.31
2023-02-18T11:49:46.035Z,98636.91
2023-02-18T11:50:53.301Z,98638.07
2023-02-18T11:52:01.634Z,98640.50
2023-02-18T11:53:24.348Z,98635.86
2023-02-18T11:54:29.185Z,98634.83
2023-02-18T11:55:31.106Z,98640.92
2023-02-18T11:56:35.502Z,98639.78
2023-02-18T11:57:40.826Z,98631.68
2023-02-18T11:58:45.828Z,98640.41
2023-02-18T11:59:48.356Z,98638.92
2023-02-18T12:00:53.356Z,98636.28
2023-02-18T12:02:11.092Z,98636.28
2023-02-18T12:03:38.250Z,98635.03
2023-02-18T12:04:44.129Z,98640.50
2023-02-18T12:05:47.345Z,98645.88
2023-02-18T12:07:17.005Z,98639.74
2023-02-18T12:08:25.909Z,98664.81
2023-02-18T12:09:40.619Z,98667.74
2023-02-18T12:10:48.949Z,98661.44
2023-02-18T12:11:54.650Z,98662.05
2023-02-18T12:13:21.644Z,98694.52
2023-02-18T12:14:24.348Z,98667.72
2023-02-18T12:15:33.823Z,98674.33
2023-02-18T12:16:47.113Z,98675.45
2023-02-18T12:18:17.934Z,98671.54
2023-02-18T12:19:40.485Z,98678.69
2023-02-18T12:20:52.661Z,98673.08
2023-02-18T12:22:06.676Z,98672.88
2023-02-18T12:23:12.375Z,98670.16
2023-02-18T12:24:20.946Z,98672.69
2023-02-18T12:25:38.866Z,98673.42
2023-02-18T12:27:00.689Z,98671.69
2023-02-18T12:29:44.759Z,98670.84
2023-02-18T12:31:02.774Z,98668.59
2023-02-18T12:32:11.305Z,98663.34
2023-02-18T12:33:19.798Z,98666.89
2023-02-18T12:34:46.815Z,98665.69
2023-02-18T12:35:52.551Z,98675.71
2023-02-18T12:37:28.040Z,98675.80
2023-02-18T12:38:53.001Z,98680.30
2023-02-18T12:40:23.252Z,98667.50
2023-02-18T12:41:56.269Z,98665.51
2023-02-18T12:43:24.942Z,98668.63
2023-02-18T12:44:45.057Z,98658.93
2023-02-18T12:46:03.536Z,98663.16
2023-02-18T12:47:27.380Z,98660.63
2023-02-18T12:48:36.078Z,98661.91
2023-02-18T12:50:04.579Z,98667.81
2023-02-18T12:51:30.404Z,98666.98
2023-02-18T12:52:43.155Z,98668.10
2023-02-18T12:54:21.063Z,98674.58
2023-02-18T12:55:27.347Z,98674.58
2023-02-18T12:56:52.902Z,98677.11
2023-02-18T12:58:32.491Z,98672.05
2023-02-18T13:00:04.183Z,98670.15
2023-02-18T13:01:19.300Z,98669.80
2023-02-18T13:02:33.694Z,98685.05
2023-02-18T13:05:32.495Z,98675.22
2023-02-18T13:06:55.317Z,98676.41
2023-02-18T13:08:12.443Z,98683.53
2023-02-18T13:09:30.059Z,98746.68